sensor_id;sensor_type;location;lat;lon;timestamp;P1;durP1;ratioP1;P2;durP2;ratioP2
78589;SDS011;67888;50.228;7.828;2023-11-19T00:02:19;6.70;;;3.40;;
78589;SDS011;67888;50.228;7.828;2023-11-19T00:07:20;5.57;;;2.33;;
78589;SDS011;67888;50.228;7.828;2023-11-19T00:12:20;7.77;;;3.60;;
78589;SDS011;67888;50.228;7.828;2023-11-19T00:17:21;9.63;;;4.13;;
78589;SDS011;67888;50.228;7.828;2023-11-19T00:22:21;9.00;;;3.33;;
78589;SDS011;67888;50.228;7.828;2023-11-19T00:27:22;7.80;;;3.53;;
78589;SDS011;67888;50.228;7.828;2023-11-19T00:32:23;3.03;;;1.60;;
78589;SDS011;67888;50.228;7.828;2023-11-19T00:37:23;2.43;;;1.10;;
78589;SDS011;67888;50.228;7.828;2023-11-19T00:42:24;9.30;;;4.80;;
78589;SDS011;67888;50.228;7.828;2023-11-19T00:47:24;3.90;;;1.60;;
78589;SDS011;67888;50.228;7.828;2023-11-19T00:52:25;9.27;;;4.27;;
78589;SDS011;67888;50.228;7.828;2023-11-19T00:57:26;3.73;;;1.70;;
78589;SDS011;67888;50.228;7.828;2023-11-19T01:02:26;2.23;;;1.10;;
78589;SDS011;67888;50.228;7.828;2023-11-19T01:07:27;3.30;;;1.20;;
78589;SDS011;67888;50.228;7.828;2023-11-19T01:12:27;3.17;;;1.00;;
78589;SDS011;67888;50.228;7.828;2023-11-19T01:17:28;3.20;;;1.10;;
78589;SDS011;67888;50.228;7.828;2023-11-19T01:22:28;1.10;;;0.80;;
78589;SDS011;67888;50.228;7.828;2023-11-19T01:27:29;2.80;;;0.93;;
78589;SDS011;67888;50.228;7.828;2023-11-19T01:32:29;2.07;;;0.80;;
78589;SDS011;67888;50.228;7.828;2023-11-19T01:37:30;3.17;;;1.00;;
78589;SDS011;67888;50.228;7.828;2023-11-19T01:42:38;1.65;;;1.05;;
78589;SDS011;67888;50.228;7.828;2023-11-19T01:47:39;1.40;;;1.05;;
78589;SDS011;67888;50.228;7.828;2023-11-19T01:52:40;1.10;;;0.80;;
78589;SDS011;67888;50.228;7.828;2023-11-19T01:57:41;1.20;;;0.90;;
78589;SDS011;67888;50.228;7.828;2023-11-19T02:02:42;1.52;;;1.00;;
78589;SDS011;67888;50.228;7.828;2023-11-19T02:07:44;1.37;;;0.80;;
78589;SDS011;67888;50.228;7.828;2023-11-19T02:12:46;3.00;;;1.10;;
78589;SDS011;67888;50.228;7.828;2023-11-19T02:17:46;1.50;;;1.10;;
78589;SDS011;67888;50.228;7.828;2023-11-19T02:22:47;1.77;;;1.07;;
78589;SDS011;67888;50.228;7.828;2023-11-19T02:27:53;1.92;;;1.05;;
78589;SDS011;67888;50.228;7.828;2023-11-19T02:32:55;1.90;;;0.90;;
78589;SDS011;67888;50.228;7.828;2023-11-19T02:38:01;1.80;;;1.07;;
78589;SDS011;67888;50.228;7.828;2023-11-19T02:43:06;1.40;;;0.77;;
78589;SDS011;67888;50.228;7.828;2023-11-19T02:48:08;1.70;;;0.80;;
78589;SDS011;67888;50.228;7.828;2023-11-19T02:53:09;1.67;;;0.70;;
78589;SDS011;67888;50.228;7.828;2023-11-19T02:58:10;2.03;;;1.10;;
78589;SDS011;67888;50.228;7.828;2023-11-19T03:03:20;1.93;;;1.00;;
78589;SDS011;67888;50.228;7.828;2023-11-19T03:08:22;1.63;;;0.90;;
78589;SDS011;67888;50.228;7.828;2023-11-19T03:13:23;1.55;;;1.15;;
78589;SDS011;67888;50.228;7.828;2023-11-19T03:18:24;4.23;;;1.27;;
78589;SDS011;67888;50.228;7.828;2023-11-19T03:23:24;1.97;;;1.10;;
78589;SDS011;67888;50.228;7.828;2023-11-19T03:28:28;1.65;;;0.80;;
78589;SDS011;67888;50.228;7.828;2023-11-19T03:33:28;1.57;;;1.00;;
78589;SDS011;67888;50.228;7.828;2023-11-19T03:38:29;1.63;;;1.10;;
78589;SDS011;67888;50.228;7.828;2023-11-19T03:43:30;1.60;;;1.17;;
78589;SDS011;67888;50.228;7.828;2023-11-19T03:48:31;1.70;;;1.00;;
78589;SDS011;67888;50.228;7.828;2023-11-19T03:53:31;1.83;;;1.17;;
78589;SDS011;67888;50.228;7.828;2023-11-19T03:58:32;3.47;;;1.60;;
78589;SDS011;67888;50.228;7.828;2023-11-19T04:03:33;1.20;;;0.90;;
78589;SDS011;67888;50.228;7.828;2023-11-19T04:08:33;1.50;;;1.10;;
78589;SDS011;67888;50.228;7.828;2023-11-19T04:13:35;1.88;;;1.17;;
78589;SDS011;67888;50.228;7.828;2023-11-19T04:18:36;2.70;;;1.17;;
78589;SDS011;67888;50.228;7.828;2023-11-19T04:23:36;2.20;;;1.17;;
78589;SDS011;67888;50.228;7.828;2023-11-19T04:28:37;1.50;;;1.10;;
78589;SDS011;67888;50.228;7.828;2023-11-19T04:33:37;1.87;;;1.00;;
78589;SDS011;67888;50.228;7.828;2023-11-19T04:38:38;2.03;;;1.10;;
78589;SDS011;67888;50.228;7.828;2023-11-19T04:43:38;1.80;;;1.10;;
78589;SDS011;67888;50.228;7.828;2023-11-19T04:48:39;2.93;;;1.10;;
78589;SDS011;67888;50.228;7.828;2023-11-19T04:53:39;3.10;;;1.03;;
78589;SDS011;67888;50.228;7.828;2023-11-19T04:58:40;1.47;;;1.10;;
78589;SDS011;67888;50.228;7.828;2023-11-19T05:03:40;3.43;;;1.00;;
78589;SDS011;67888;50.228;7.828;2023-11-19T05:08:41;2.85;;;1.30;;
78589;SDS011;67888;50.228;7.828;2023-11-19T05:13:41;4.13;;;1.40;;
78589;SDS011;67888;50.228;7.828;2023-11-19T05:18:42;4.53;;;2.20;;
78589;SDS011;67888;50.228;7.828;2023-11-19T05:23:44;3.47;;;1.50;;
78589;SDS011;67888;50.228;7.828;2023-11-19T05:28:45;2.42;;;1.13;;
78589;SDS011;67888;50.228;7.828;2023-11-19T05:33:45;1.87;;;1.20;;
78589;SDS011;67888;50.228;7.828;2023-11-19T05:38:46;3.47;;;1.40;;
78589;SDS011;67888;50.228;7.828;2023-11-19T05:43:46;2.07;;;1.17;;
78589;SDS011;67888;50.228;7.828;2023-11-19T05:48:47;2.00;;;1.20;;
78589;SDS011;67888;50.228;7.828;2023-11-19T05:53:47;5.70;;;1.50;;
78589;SDS011;67888;50.228;7.828;2023-11-19T05:58:50;2.63;;;1.35;;
78589;SDS011;67888;50.228;7.828;2023-11-19T06:03:50;2.57;;;1.20;;
78589;SDS011;67888;50.228;7.828;2023-11-19T06:08:51;3.83;;;1.47;;
78589;SDS011;67888;50.228;7.828;2023-11-19T06:13:51;3.20;;;1.20;;
78589;SDS011;67888;50.228;7.828;2023-11-19T06:18:52;3.47;;;1.60;;
78589;SDS011;67888;50.228;7.828;2023-11-19T06:23:53;3.30;;;1.25;;
78589;SDS011;67888;50.228;7.828;2023-11-19T06:28:54;5.75;;;1.70;;
78589;SDS011;67888;50.228;7.828;2023-11-19T06:33:55;5.17;;;1.67;;
78589;SDS011;67888;50.228;7.828;2023-11-19T06:38:55;2.90;;;1.47;;
78589;SDS011;67888;50.228;7.828;2023-11-19T06:43:56;7.90;;;4.03;;
78589;SDS011;67888;50.228;7.828;2023-11-19T06:48:56;5.60;;;2.10;;
78589;SDS011;67888;50.228;7.828;2023-11-19T06:53:57;11.85;;;5.28;;
78589;SDS011;67888;50.228;7.828;2023-11-19T06:58:58;5.33;;;1.70;;
78589;SDS011;67888;50.228;7.828;2023-11-19T07:03:58;4.13;;;1.83;;
78589;SDS011;67888;50.228;7.828;2023-11-19T07:09:02;9.38;;;2.72;;
78589;SDS011;67888;50.228;7.828;2023-11-19T07:14:13;10.30;;;2.50;;
78589;SDS011;67888;50.228;7.828;2023-11-19T07:19:14;5.23;;;2.00;;
78589;SDS011;67888;50.228;7.828;2023-11-19T07:24:15;6.40;;;1.87;;
78589;SDS011;67888;50.228;7.828;2023-11-19T07:29:16;4.30;;;1.60;;
78589;SDS011;67888;50.228;7.828;2023-11-19T07:34:16;5.70;;;1.73;;
78589;SDS011;67888;50.228;7.828;2023-11-19T07:39:17;8.03;;;1.70;;
78589;SDS011;67888;50.228;7.828;2023-11-19T07:44:17;4.30;;;1.47;;
78589;SDS011;67888;50.228;7.828;2023-11-19T07:49:18;5.23;;;1.73;;
78589;SDS011;67888;50.228;7.828;2023-11-19T07:54:18;7.00;;;1.90;;
78589;SDS011;67888;50.228;7.828;2023-11-19T07:59:21;9.57;;;1.70;;
78589;SDS011;67888;50.228;7.828;2023-11-19T08:04:22;8.93;;;2.17;;
78589;SDS011;67888;50.228;7.828;2023-11-19T08:09:22;5.60;;;2.00;;
78589;SDS011;67888;50.228;7.828;2023-11-19T08:14:23;10.60;;;1.83;;
78589;SDS011;67888;50.228;7.828;2023-11-19T08:19:24;9.02;;;1.83;;
78589;SDS011;67888;50.228;7.828;2023-11-19T08:24:24;5.93;;;1.50;;
78589;SDS011;67888;50.228;7.828;2023-11-19T08:29:25;9.83;;;1.80;;
78589;SDS011;67888;50.228;7.828;2023-11-19T08:34:25;10.33;;;1.77;;
78589;SDS011;67888;50.228;7.828;2023-11-19T08:39:26;7.15;;;1.83;;
78589;SDS011;67888;50.228;7.828;2023-11-19T08:44:26;8.60;;;1.80;;
78589;SDS011;67888;50.228;7.828;2023-11-19T08:49:27;8.20;;;2.17;;
78589;SDS011;67888;50.228;7.828;2023-11-19T08:54:27;9.30;;;2.60;;
78589;SDS011;67888;50.228;7.828;2023-11-19T08:59:28;10.63;;;1.97;;
78589;SDS011;67888;50.228;7.828;2023-11-19T09:04:29;11.18;;;2.15;;
78589;SDS011;67888;50.228;7.828;2023-11-19T09:09:29;11.23;;;1.70;;
78589;SDS011;67888;50.228;7.828;2023-11-19T09:14:30;8.80;;;1.87;;
78589;SDS011;67888;50.228;7.828;2023-11-19T09:19:32;8.80;;;1.80;;
78589;SDS011;67888;50.228;7.828;2023-11-19T09:24:33;7.90;;;1.80;;
78589;SDS011;67888;50.228;7.828;2023-11-19T09:29:33;9.63;;;2.23;;
78589;SDS011;67888;50.228;7.828;2023-11-19T09:34:34;11.10;;;2.07;;
78589;SDS011;67888;50.228;7.828;2023-11-19T09:39:34;10.50;;;1.70;;
78589;SDS011;67888;50.228;7.828;2023-11-19T09:44:35;9.27;;;2.07;;
78589;SDS011;67888;50.228;7.828;2023-11-19T09:49:39;9.25;;;2.08;;
78589;SDS011;67888;50.228;7.828;2023-11-19T09:54:39;15.15;;;2.90;;
78589;SDS011;67888;50.228;7.828;2023-11-19T09:59:40;12.03;;;1.97;;
78589;SDS011;67888;50.228;7.828;2023-11-19T10:04:42;10.20;;;2.72;;
78589;SDS011;67888;50.228;7.828;2023-11-19T10:09:46;10.07;;;2.30;;
78589;SDS011;67888;50.228;7.828;2023-11-19T10:14:47;10.37;;;2.20;;
78589;SDS011;67888;50.228;7.828;2023-11-19T10:19:48;13.25;;;2.35;;
78589;SDS011;67888;50.228;7.828;2023-11-19T10:24:49;9.23;;;1.90;;
78589;SDS011;67888;50.228;7.828;2023-11-19T10:29:49;10.60;;;2.33;;
78589;SDS011;67888;50.228;7.828;2023-11-19T10:34:50;14.43;;;2.23;;
78589;SDS011;67888;50.228;7.828;2023-11-19T10:39:51;11.57;;;2.03;;
78589;SDS011;67888;50.228;7.828;2023-11-19T10:44:55;9.53;;;2.03;;
78589;SDS011;67888;50.228;7.828;2023-11-19T10:49:56;12.47;;;2.10;;
78589;SDS011;67888;50.228;7.828;2023-11-19T10:54:56;10.88;;;2.28;;
78589;SDS011;67888;50.228;7.828;2023-11-19T11:00:02;17.23;;;2.73;;
78589;SDS011;67888;50.228;7.828;2023-11-19T11:05:11;11.32;;;2.72;;
78589;SDS011;67888;50.228;7.828;2023-11-19T11:10:12;10.85;;;2.28;;
78589;SDS011;67888;50.228;7.828;2023-11-19T11:15:15;13.63;;;2.40;;
78589;SDS011;67888;50.228;7.828;2023-11-19T11:20:18;12.07;;;3.08;;
78589;SDS011;67888;50.228;7.828;2023-11-19T11:36:23;13.80;;;2.70;;
78589;SDS011;67888;50.228;7.828;2023-11-19T11:41:24;10.07;;;2.37;;
78589;SDS011;67888;50.228;7.828;2023-11-19T11:57:06;11.43;;;3.23;;
78589;SDS011;67888;50.228;7.828;2023-11-19T12:02:09;10.20;;;2.23;;
78589;SDS011;67888;50.228;7.828;2023-11-19T12:07:12;10.30;;;2.08;;
78589;SDS011;67888;50.228;7.828;2023-11-19T12:12:19;8.23;;;2.30;;
78589;SDS011;67888;50.228;7.828;2023-11-19T12:22:43;10.23;;;2.22;;
78589;SDS011;67888;50.228;7.828;2023-11-19T12:27:46;10.98;;;1.88;;
78589;SDS011;67888;50.228;7.828;2023-11-19T12:32:48;9.50;;;2.10;;
78589;SDS011;67888;50.228;7.828;2023-11-19T12:37:50;8.57;;;1.80;;
78589;SDS011;67888;50.228;7.828;2023-11-19T12:42:52;9.70;;;1.85;;
78589;SDS011;67888;50.228;7.828;2023-11-19T12:48:09;11.97;;;1.87;;
78589;SDS011;67888;50.228;7.828;2023-11-19T12:53:11;9.67;;;2.03;;
78589;SDS011;67888;50.228;7.828;2023-11-19T12:58:33;10.50;;;2.33;;
78589;SDS011;67888;50.228;7.828;2023-11-19T13:03:33;9.75;;;2.10;;
78589;SDS011;67888;50.228;7.828;2023-11-19T13:21:07;8.70;;;2.00;;
78589;SDS011;67888;50.228;7.828;2023-11-19T13:26:08;10.33;;;1.70;;
78589;SDS011;67888;50.228;7.828;2023-11-19T13:31:08;9.95;;;2.28;;
78589;SDS011;67888;50.228;7.828;2023-11-19T13:36:10;11.57;;;2.40;;
78589;SDS011;67888;50.228;7.828;2023-11-19T13:41:10;10.10;;;2.20;;
78589;SDS011;67888;50.228;7.828;2023-11-19T13:46:12;10.43;;;2.92;;
78589;SDS011;67888;50.228;7.828;2023-11-19T13:51:13;10.23;;;2.43;;
78589;SDS011;67888;50.228;7.828;2023-11-19T13:56:13;9.07;;;2.10;;
78589;SDS011;67888;50.228;7.828;2023-11-19T14:01:14;9.17;;;2.27;;
78589;SDS011;67888;50.228;7.828;2023-11-19T14:06:14;10.53;;;1.97;;
78589;SDS011;67888;50.228;7.828;2023-11-19T14:11:15;9.70;;;2.70;;
78589;SDS011;67888;50.228;7.828;2023-11-19T14:16:16;11.20;;;3.17;;
78589;SDS011;67888;50.228;7.828;2023-11-19T14:21:16;10.20;;;2.70;;
78589;SDS011;67888;50.228;7.828;2023-11-19T14:26:17;7.93;;;2.57;;
78589;SDS011;67888;50.228;7.828;2023-11-19T14:31:17;7.37;;;2.33;;
78589;SDS011;67888;50.228;7.828;2023-11-19T14:36:17;8.83;;;2.40;;
78589;SDS011;67888;50.228;7.828;2023-11-19T14:41:18;10.77;;;2.50;;
78589;SDS011;67888;50.228;7.828;2023-11-19T14:46:19;10.03;;;2.53;;
78589;SDS011;67888;50.228;7.828;2023-11-19T14:51:19;8.53;;;2.40;;
78589;SDS011;67888;50.228;7.828;2023-11-19T14:56:20;8.07;;;1.75;;
78589;SDS011;67888;50.228;7.828;2023-11-19T15:01:21;9.63;;;1.98;;
78589;SDS011;67888;50.228;7.828;2023-11-19T15:12:40;7.83;;;1.97;;
78589;SDS011;67888;50.228;7.828;2023-11-19T15:17:41;12.02;;;2.28;;
78589;SDS011;67888;50.228;7.828;2023-11-19T15:22:42;8.30;;;2.10;;
78589;SDS011;67888;50.228;7.828;2023-11-19T15:27:43;9.90;;;1.77;;
78589;SDS011;67888;50.228;7.828;2023-11-19T15:32:43;9.68;;;2.15;;
78589;SDS011;67888;50.228;7.828;2023-11-19T15:37:43;12.00;;;2.50;;
78589;SDS011;67888;50.228;7.828;2023-11-19T15:42:45;7.67;;;1.53;;
78589;SDS011;67888;50.228;7.828;2023-11-19T15:47:47;12.30;;;2.92;;
78589;SDS011;67888;50.228;7.828;2023-11-19T15:52:49;8.43;;;2.10;;
78589;SDS011;67888;50.228;7.828;2023-11-19T15:57:50;6.70;;;1.93;;
78589;SDS011;67888;50.228;7.828;2023-11-19T16:02:50;10.93;;;2.77;;
78589;SDS011;67888;50.228;7.828;2023-11-19T16:07:51;10.27;;;1.90;;
78589;SDS011;67888;50.228;7.828;2023-11-19T16:12:51;10.02;;;2.03;;
78589;SDS011;67888;50.228;7.828;2023-11-19T16:17:52;9.40;;;1.97;;
78589;SDS011;67888;50.228;7.828;2023-11-19T16:22:54;9.18;;;2.30;;
78589;SDS011;67888;50.228;7.828;2023-11-19T16:27:55;8.67;;;1.70;;
78589;SDS011;67888;50.228;7.828;2023-11-19T16:32:56;10.25;;;2.42;;
78589;SDS011;67888;50.228;7.828;2023-11-19T16:37:58;7.33;;;1.73;;
78589;SDS011;67888;50.228;7.828;2023-11-19T16:42:59;10.05;;;2.20;;
78589;SDS011;67888;50.228;7.828;2023-11-19T16:48:00;11.60;;;1.97;;
78589;SDS011;67888;50.228;7.828;2023-11-19T16:53:01;12.13;;;2.53;;
78589;SDS011;67888;50.228;7.828;2023-11-19T16:58:04;12.18;;;2.22;;
78589;SDS011;67888;50.228;7.828;2023-11-19T17:03:04;10.65;;;2.20;;
78589;SDS011;67888;50.228;7.828;2023-11-19T17:08:05;9.23;;;1.60;;
78589;SDS011;67888;50.228;7.828;2023-11-19T17:13:05;8.33;;;2.10;;
78589;SDS011;67888;50.228;7.828;2023-11-19T17:18:06;10.47;;;1.97;;
78589;SDS011;67888;50.228;7.828;2023-11-19T17:23:06;13.47;;;2.27;;
78589;SDS011;67888;50.228;7.828;2023-11-19T17:28:08;11.65;;;2.20;;
78589;SDS011;67888;50.228;7.828;2023-11-19T17:33:09;9.03;;;2.03;;
78589;SDS011;67888;50.228;7.828;2023-11-19T17:38:10;11.10;;;1.73;;
78589;SDS011;67888;50.228;7.828;2023-11-19T17:43:10;9.00;;;1.70;;
78589;SDS011;67888;50.228;7.828;2023-11-19T17:48:11;10.97;;;2.10;;
78589;SDS011;67888;50.228;7.828;2023-11-19T17:53:12;11.13;;;2.63;;
78589;SDS011;67888;50.228;7.828;2023-11-19T17:58:12;9.33;;;2.00;;
78589;SDS011;67888;50.228;7.828;2023-11-19T18:03:13;21.47;;;8.37;;
78589;SDS011;67888;50.228;7.828;2023-11-19T18:08:14;13.83;;;3.00;;
78589;SDS011;67888;50.228;7.828;2023-11-19T18:13:17;8.73;;;1.58;;
78589;SDS011;67888;50.228;7.828;2023-11-19T18:18:18;14.00;;;2.07;;
78589;SDS011;67888;50.228;7.828;2023-11-19T18:23:18;10.77;;;2.10;;
78589;SDS011;67888;50.228;7.828;2023-11-19T18:28:19;16.50;;;3.23;;
78589;SDS011;67888;50.228;7.828;2023-11-19T18:33:23;10.07;;;2.00;;
78589;SDS011;67888;50.228;7.828;2023-11-19T18:38:23;10.07;;;1.90;;
78589;SDS011;67888;50.228;7.828;2023-11-19T18:43:24;11.43;;;2.28;;
78589;SDS011;67888;50.228;7.828;2023-11-19T18:48:26;8.13;;;2.77;;
78589;SDS011;67888;50.228;7.828;2023-11-19T18:53:26;13.23;;;2.53;;
78589;SDS011;67888;50.228;7.828;2023-11-19T18:58:26;11.90;;;1.97;;
78589;SDS011;67888;50.228;7.828;2023-11-19T19:03:27;12.73;;;2.42;;
78589;SDS011;67888;50.228;7.828;2023-11-19T19:08:31;16.27;;;3.50;;
78589;SDS011;67888;50.228;7.828;2023-11-19T19:13:35;9.98;;;2.17;;
78589;SDS011;67888;50.228;7.828;2023-11-19T19:18:37;9.15;;;1.70;;
78589;SDS011;67888;50.228;7.828;2023-11-19T19:23:38;9.50;;;1.87;;
78589;SDS011;67888;50.228;7.828;2023-11-19T19:28:38;10.63;;;1.90;;
78589;SDS011;67888;50.228;7.828;2023-11-19T19:33:39;11.02;;;2.00;;
78589;SDS011;67888;50.228;7.828;2023-11-19T19:38:40;9.47;;;1.90;;
78589;SDS011;67888;50.228;7.828;2023-11-19T19:43:41;11.82;;;1.70;;
78589;SDS011;67888;50.228;7.828;2023-11-19T19:48:41;10.30;;;2.27;;
78589;SDS011;67888;50.228;7.828;2023-11-19T19:53:42;18.27;;;1.97;;
78589;SDS011;67888;50.228;7.828;2023-11-19T19:58:44;10.90;;;2.08;;
78589;SDS011;67888;50.228;7.828;2023-11-19T20:03:45;15.20;;;2.13;;
78589;SDS011;67888;50.228;7.828;2023-11-19T20:08:45;16.77;;;2.63;;
78589;SDS011;67888;50.228;7.828;2023-11-19T20:13:47;9.97;;;2.20;;
78589;SDS011;67888;50.228;7.828;2023-11-19T20:18:48;8.77;;;2.00;;
78589;SDS011;67888;50.228;7.828;2023-11-19T20:23:48;12.10;;;2.10;;
78589;SDS011;67888;50.228;7.828;2023-11-19T20:28:49;9.93;;;2.00;;
78589;SDS011;67888;50.228;7.828;2023-11-19T20:33:49;14.17;;;1.80;;
78589;SDS011;67888;50.228;7.828;2023-11-19T20:38:50;10.47;;;2.47;;
78589;SDS011;67888;50.228;7.828;2023-11-19T20:43:51;7.82;;;1.80;;
78589;SDS011;67888;50.228;7.828;2023-11-19T20:48:52;11.40;;;1.73;;
78589;SDS011;67888;50.228;7.828;2023-11-19T20:53:53;11.57;;;2.10;;
78589;SDS011;67888;50.228;7.828;2023-11-19T20:58:54;14.07;;;3.57;;
78589;SDS011;67888;50.228;7.828;2023-11-19T21:03:54;10.48;;;1.70;;
78589;SDS011;67888;50.228;7.828;2023-11-19T21:08:56;9.13;;;1.80;;
78589;SDS011;67888;50.228;7.828;2023-11-19T21:19:26;8.07;;;1.90;;
78589;SDS011;67888;50.228;7.828;2023-11-19T21:24:30;8.35;;;1.77;;
78589;SDS011;67888;50.228;7.828;2023-11-19T21:29:30;11.57;;;2.20;;
78589;SDS011;67888;50.228;7.828;2023-11-19T21:34:31;8.33;;;1.60;;
78589;SDS011;67888;50.228;7.828;2023-11-19T21:39:32;8.33;;;1.70;;
78589;SDS011;67888;50.228;7.828;2023-11-19T21:44:34;7.78;;;1.55;;
78589;SDS011;67888;50.228;7.828;2023-11-19T21:49:35;7.50;;;1.40;;
78589;SDS011;67888;50.228;7.828;2023-11-19T21:54:38;15.60;;;2.57;;
78589;SDS011;67888;50.228;7.828;2023-11-19T21:59:38;10.83;;;2.30;;
78589;SDS011;67888;50.228;7.828;2023-11-19T22:04:40;9.55;;;1.63;;
78589;SDS011;67888;50.228;7.828;2023-11-19T22:09:41;8.10;;;2.10;;
78589;SDS011;67888;50.228;7.828;2023-11-19T22:14:42;9.10;;;1.67;;
78589;SDS011;67888;50.228;7.828;2023-11-19T22:19:55;7.78;;;1.90;;
78589;SDS011;67888;50.228;7.828;2023-11-19T22:24:56;10.70;;;2.20;;
78589;SDS011;67888;50.228;7.828;2023-11-19T22:29:57;9.95;;;1.98;;
78589;SDS011;67888;50.228;7.828;2023-11-19T22:34:58;11.27;;;2.20;;
78589;SDS011;67888;50.228;7.828;2023-11-19T22:45:25;7.25;;;2.03;;
78589;SDS011;67888;50.228;7.828;2023-11-19T22:50:26;13.10;;;2.00;;
78589;SDS011;67888;50.228;7.828;2023-11-19T22:55:27;8.38;;;1.67;;
78589;SDS011;67888;50.228;7.828;2023-11-19T23:00:28;7.33;;;2.00;;
78589;SDS011;67888;50.228;7.828;2023-11-19T23:05:29;8.13;;;1.57;;
78589;SDS011;67888;50.228;7.828;2023-11-19T23:10:31;10.93;;;1.70;;
78589;SDS011;67888;50.228;7.828;2023-11-19T23:15:33;7.50;;;1.50;;
78589;SDS011;67888;50.228;7.828;2023-11-19T23:20:33;11.77;;;2.37;;
78589;SDS011;67888;50.228;7.828;2023-11-19T23:25:34;10.53;;;1.70;;
78589;SDS011;67888;50.228;7.828;2023-11-19T23:30:34;9.77;;;1.85;;
78589;SDS011;67888;50.228;7.828;2023-11-19T23:35:36;12.03;;;1.83;;
78589;SDS011;67888;50.228;7.828;2023-11-19T23:40:36;7.40;;;1.30;;
78589;SDS011;67888;50.228;7.828;2023-11-19T23:45:37;12.98;;;2.10;;
78589;SDS011;67888;50.228;7.828;2023-11-19T23:50:37;10.90;;;2.00;;
78589;SDS011;67888;50.228;7.828;2023-11-19T23:55:38;9.20;;;2.05;;
